Time;durP1;ratioP1;P1;durP2;ratioP2;P2;SDS_P1;SDS_P2;PMS_P1;PMS_P2;Temp;Humidity;BMP_temperature;BMP_pressure;BME280_temperature;BME280_humidity;BME280_pressure;Samples;Min_cycle;Max_cycle;Signal;HPM_P1;HPM_P2
2021/08/29 00:08:17;;;;;;;16.60;11.82;;;;;;;;;;20903952;28;20053;-63
2021/08/29 00:18:20;;;;;;;15.98;12.18;;;;;;;;;;20902496;28;20492;-62
2021/08/29 00:28:22;;;;;;;15.48;11.43;;;;;;;;;;20902697;28;20052;-62
2021/08/29 00:38:25;;;;;;;18.35;11.27;;;;;;;;;;20901135;28;20098;-62
2021/08/29 00:48:28;;;;;;;15.73;11.95;;;;;;;;;;20900786;28;20501;-63
2021/08/29 00:58:30;;;;;;;14.93;11.32;;;;;;;;;;20899216;28;20084;-63
2021/08/29 01:08:34;;;;;;;14.70;11.48;;;;;;;;;;20899619;28;20060;-63
2021/08/29 01:18:40;;;;;;;15.93;12.70;;;;;;;;;;20899651;28;20405;-64
2021/08/29 01:28:49;;;;;;;15.27;12.40;;;;;;;;;;20900014;28;20138;-62
2021/08/29 01:38:55;;;;;;;17.77;11.55;;;;;;;;;;20899807;28;20136;-62
2021/08/29 01:49:02;;;;;;;14.90;11.90;;;;;;;;;;20898395;28;20041;-64
2021/08/29 01:59:15;;;;;;;17.65;10.82;;;;;;;;;;20898011;28;20060;-62
2021/08/29 02:09:39;;;;;;;13.93;11.30;;;;;;;;;;20908332;28;20049;-62
2021/08/29 02:19:58;;;;;;;13.03;10.00;;;;;;;;;;20911121;28;20049;-62
2021/08/29 02:30:16;;;;;;;23.73;11.48;;;;;;;;;;20910362;28;20056;-62
2021/08/29 02:40:44;;;;;;;14.80;11.20;;;;;;;;;;20909493;28;20064;-62
2021/08/29 02:50:50;;;;;;;14.68;11.50;;;;;;;;;;20908592;28;20057;-62
2021/08/29 03:00:59;;;;;;;15.00;12.18;;;;;;;;;;20908251;28;20053;-62
2021/08/29 03:11:05;;;;;;;17.42;11.15;;;;;;;;;;20907570;28;20049;-61
2021/08/29 03:21:26;;;;;;;15.93;11.73;;;;;;;;;;20907372;28;20400;-62
2021/08/29 03:31:33;;;;;;;15.65;11.52;;;;;;;;;;20906842;28;20537;-63
2021/08/29 03:41:56;;;;;;;14.10;10.27;;;;;;;;;;20906209;28;20405;-62
2021/08/29 03:52:18;;;;;;;14.40;10.52;;;;;;;;;;20904349;28;20053;-62
2021/08/29 04:02:34;;;;;;;13.80;10.85;;;;;;;;;;20904200;28;20546;-62
2021/08/29 04:12:48;;;;;;;17.15;10.95;;;;;;;;;;20888411;28;20075;-62
2021/08/29 04:23:00;;;;;;;17.03;11.40;;;;;;;;;;20904446;28;20091;-63
2021/08/29 04:33:19;;;;;;;15.95;10.65;;;;;;;;;;20902606;28;20045;-62
2021/08/29 04:43:31;;;;;;;17.53;11.20;;;;;;;;;;20902267;28;20109;-61
2021/08/29 04:53:45;;;;;;;15.15;10.52;;;;;;;;;;20901360;28;20077;-62
2021/08/29 05:03:52;;;;;;;16.42;11.27;;;;;;;;;;20900875;28;20052;-61
2021/08/29 05:13:58;;;;;;;14.48;11.50;;;;;;;;;;20900461;28;20092;-61
2021/08/29 05:24:04;;;;;;;11.48;9.45;;;;;;;;;;20900602;28;20052;-62
2021/08/29 05:34:08;;;;;;;15.77;10.95;;;;;;;;;;20883481;28;20508;-62
2021/08/29 05:44:10;;;;;;;13.57;10.20;;;;;;;;;;20909613;28;20053;-61
2021/08/29 05:54:14;;;;;;;15.65;9.70;;;;;;;;;;20912639;28;20055;-62
2021/08/29 06:04:16;;;;;;;14.50;10.35;;;;;;;;;;20912568;28;20049;-62
2021/08/29 06:14:20;;;;;;;12.05;9.68;;;;;;;;;;20912383;28;20049;-64
2021/08/29 06:24:24;;;;;;;14.25;9.20;;;;;;;;;;20910983;28;20401;-62
2021/08/29 06:34:29;;;;;;;15.45;9.60;;;;;;;;;;20910393;28;20052;-62
2021/08/29 06:44:31;;;;;;;13.50;9.13;;;;;;;;;;20909893;28;20049;-62
2021/08/29 06:54:35;;;;;;;12.27;8.80;;;;;;;;;;20908099;28;20132;-62
2021/08/29 07:04:42;;;;;;;14.27;9.15;;;;;;;;;;20908292;28;20053;-62
2021/08/29 07:14:45;;;;;;;12.77;8.25;;;;;;;;;;20907483;28;20064;-62
2021/08/29 07:24:47;;;;;;;13.55;7.97;;;;;;;;;;20906557;28;20141;-61
2021/08/29 07:34:49;;;;;;;9.23;6.30;;;;;;;;;;20906334;28;20098;-62
2021/08/29 07:44:54;;;;;;;13.57;7.43;;;;;;;;;;20905920;28;20071;-61
2021/08/29 07:54:58;;;;;;;12.40;7.65;;;;;;;;;;20905254;28;20473;-62
2021/08/29 08:05:04;;;;;;;9.65;7.07;;;;;;;;;;20904105;28;20082;-61
2021/08/29 08:15:09;;;;;;;11.00;7.18;;;;;;;;;;20886424;28;20484;-63
2021/08/29 08:25:11;;;;;;;14.27;11.38;;;;;;;;;;20903708;28;20420;-62
2021/08/29 08:35:14;;;;;;;9.30;7.13;;;;;;;;;;20901968;28;20052;-61
2021/08/29 08:45:20;;;;;;;9.35;6.95;;;;;;;;;;20902437;28;20052;-62
2021/08/29 08:55:24;;;;;;;10.90;7.32;;;;;;;;;;20901273;28;20049;-62
2021/08/29 09:05:29;;;;;;;11.93;8.10;;;;;;;;;;20900797;28;20474;-63
2021/08/29 09:15:32;;;;;;;12.93;8.70;;;;;;;;;;20905549;28;20432;-62
2021/08/29 09:25:40;;;;;;;13.18;7.60;;;;;;;;;;20914836;28;20063;-62
2021/08/29 09:35:43;;;;;;;12.75;8.63;;;;;;;;;;20914332;28;20489;-62
2021/08/29 09:45:46;;;;;;;9.27;7.32;;;;;;;;;;20913721;28;20442;-62
2021/08/29 09:55:49;;;;;;;10.65;8.18;;;;;;;;;;20912093;28;20049;-62
2021/08/29 10:06:14;;;;;;;11.02;8.73;;;;;;;;;;20912135;28;20137;-62
2021/08/29 10:16:18;;;;;;;10.85;8.30;;;;;;;;;;20906040;28;20060;-62
2021/08/29 10:26:22;;;;;;;14.25;11.07;;;;;;;;;;20905254;28;20495;-62
2021/08/29 10:36:26;;;;;;;13.65;8.65;;;;;;;;;;20905383;28;20076;-65
2021/08/29 10:46:29;;;;;;;12.73;9.00;;;;;;;;;;20905260;28;20041;-63
2021/08/29 10:56:33;;;;;;;11.88;9.82;;;;;;;;;;20903311;28;20147;-64
2021/08/29 11:06:44;;;;;;;20.25;8.55;;;;;;;;;;20857816;28;1308855;-62
2021/08/29 11:17:07;;;;;;;12.95;10.10;;;;;;;;;;20908265;28;20137;-65
2021/08/29 11:27:29;;;;;;;8.93;7.05;;;;;;;;;;20906944;28;20052;-64
2021/08/29 11:37:33;;;;;;;9.85;7.30;;;;;;;;;;20905464;28;20121;-62
2021/08/29 11:47:40;;;;;;;9.57;8.02;;;;;;;;;;20888708;28;20057;-63
2021/08/29 11:57:49;;;;;;;9.50;6.43;;;;;;;;;;20904189;28;20137;-61
2021/08/29 12:08:02;;;;;;;8.60;5.80;;;;;;;;;;20903924;28;20450;-63
2021/08/29 12:18:06;;;;;;;6.13;5.00;;;;;;;;;;20903986;28;20528;-62
2021/08/29 12:28:10;;;;;;;6.15;4.35;;;;;;;;;;20903671;28;20049;-63
2021/08/29 12:38:33;;;;;;;9.05;5.55;;;;;;;;;;20902287;28;20064;-63
2021/08/29 12:48:36;;;;;;;6.93;3.80;;;;;;;;;;20901741;28;20041;-63
2021/08/29 12:58:38;;;;;;;8.18;3.85;;;;;;;;;;20901145;28;20060;-62
2021/08/29 13:08:41;;;;;;;5.88;4.00;;;;;;;;;;20901388;28;20081;-63
2021/08/29 13:18:45;;;;;;;8.90;6.35;;;;;;;;;;20900093;28;20053;-61
2021/08/29 13:28:58;;;;;;;6.18;4.07;;;;;;;;;;20899973;28;20045;-64
2021/08/29 13:39:11;;;;;;;5.40;4.05;;;;;;;;;;20899102;28;20061;-62
2021/08/29 13:49:13;;;;;;;6.15;4.72;;;;;;;;;;20898359;28;20041;-63
2021/08/29 13:59:15;;;;;;;4.88;3.33;;;;;;;;;;20899635;28;20076;-63
2021/08/29 14:09:17;;;;;;;9.77;5.05;;;;;;;;;;20910934;28;20101;-63
2021/08/29 14:19:20;;;;;;;3.53;3.20;;;;;;;;;;20911872;28;20397;-63
2021/08/29 14:29:23;;;;;;;4.63;2.92;;;;;;;;;;20911512;28;20049;-63
2021/08/29 14:39:25;;;;;;;4.50;3.22;;;;;;;;;;20910032;28;20060;-63
2021/08/29 14:49:27;;;;;;;6.25;4.22;;;;;;;;;;20909526;28;20045;-62
2021/08/29 14:59:29;;;;;;;5.47;2.30;;;;;;;;;;20908810;28;20056;-62
2021/08/29 15:09:31;;;;;;;5.72;2.63;;;;;;;;;;20890244;28;20045;-62
2021/08/29 15:19:33;;;;;;;4.82;3.20;;;;;;;;;;20907381;28;20085;-64
2021/08/29 15:29:36;;;;;;;3.45;2.63;;;;;;;;;;20906666;28;20120;-63
2021/08/29 15:39:39;;;;;;;5.28;3.53;;;;;;;;;;20887932;28;20060;-62
2021/08/29 15:49:41;;;;;;;4.10;2.78;;;;;;;;;;20905416;28;20049;-63
2021/08/29 15:59:43;;;;;;;6.82;3.20;;;;;;;;;;20904672;28;20462;-63
2021/08/29 16:09:45;;;;;;;5.47;2.85;;;;;;;;;;20903109;28;20053;-62
2021/08/29 16:19:47;;;;;;;9.77;4.65;;;;;;;;;;20903126;28;20053;-62
2021/08/29 16:29:49;;;;;;;4.32;2.20;;;;;;;;;;20900927;28;20477;-62
2021/08/29 16:39:51;;;;;;;5.15;2.13;;;;;;;;;;20899919;28;20117;-63
2021/08/29 16:49:53;;;;;;;6.07;2.35;;;;;;;;;;20900081;28;20059;-62
2021/08/29 16:59:56;;;;;;;3.88;2.40;;;;;;;;;;20899144;28;20085;-64
2021/08/29 17:09:58;;;;;;;4.43;1.95;;;;;;;;;;20899371;28;20049;-61
2021/08/29 17:20:00;;;;;;;4.32;3.10;;;;;;;;;;20898888;28;20045;-63
2021/08/29 17:30:02;;;;;;;4.25;2.15;;;;;;;;;;20898885;28;20049;-64
2021/08/29 17:40:04;;;;;;;5.68;3.17;;;;;;;;;;20907820;28;20480;-62
2021/08/29 17:50:06;;;;;;;5.25;2.60;;;;;;;;;;20912175;28;20074;-64
2021/08/29 18:00:09;;;;;;;6.40;3.58;;;;;;;;;;20911299;28;20049;-64
2021/08/29 18:10:12;;;;;;;4.75;2.30;;;;;;;;;;20910916;28;20053;-64
2021/08/29 18:20:14;;;;;;;3.28;2.40;;;;;;;;;;20910980;28;20409;-63
2021/08/29 18:30:16;;;;;;;7.53;3.38;;;;;;;;;;20910147;28;20041;-63
2021/08/29 18:40:18;;;;;;;4.05;2.55;;;;;;;;;;20909217;28;20057;-64
2021/08/29 18:50:20;;;;;;;5.88;3.10;;;;;;;;;;20908868;28;20078;-63
2021/08/29 19:00:23;;;;;;;5.72;4.13;;;;;;;;;;20907731;28;20542;-63
2021/08/29 19:10:25;;;;;;;7.53;5.55;;;;;;;;;;20907448;28;20057;-63
2021/08/29 19:20:27;;;;;;;10.23;6.75;;;;;;;;;;20907826;28;20055;-65
2021/08/29 19:30:29;;;;;;;6.72;4.50;;;;;;;;;;20906589;28;20041;-65
2021/08/29 19:40:31;;;;;;;5.20;3.17;;;;;;;;;;20905566;28;20094;-64
2021/08/29 19:50:34;;;;;;;4.35;2.95;;;;;;;;;;20905499;28;20056;-63
2021/08/29 20:00:36;;;;;;;8.32;7.35;;;;;;;;;;20903532;28;20056;-63
2021/08/29 20:10:39;;;;;;;5.25;4.03;;;;;;;;;;20903435;28;20053;-64
2021/08/29 20:20:41;;;;;;;7.03;3.42;;;;;;;;;;20903981;28;20052;-64
2021/08/29 20:30:44;;;;;;;6.43;4.75;;;;;;;;;;20903720;28;20133;-63
2021/08/29 20:40:46;;;;;;;8.43;4.68;;;;;;;;;;20902112;28;20408;-64
2021/08/29 20:50:48;;;;;;;4.80;3.55;;;;;;;;;;20901685;28;20073;-64
2021/08/29 21:00:50;;;;;;;7.03;3.30;;;;;;;;;;20901297;28;20438;-64
2021/08/29 21:10:52;;;;;;;6.63;3.88;;;;;;;;;;20905635;28;20051;-64
2021/08/29 21:20:54;;;;;;;6.25;3.17;;;;;;;;;;20915183;28;20131;-62
2021/08/29 21:30:56;;;;;;;9.15;3.85;;;;;;;;;;20914657;28;20045;-62
2021/08/29 21:40:58;;;;;;;4.80;2.65;;;;;;;;;;20918897;28;20413;-64
2021/08/29 21:51:02;;;;;;;5.60;3.53;;;;;;;;;;20922995;28;20045;-64
2021/08/29 22:01:04;;;;;;;7.03;3.47;;;;;;;;;;20919210;28;20450;-63
2021/08/29 22:11:07;;;;;;;6.75;3.13;;;;;;;;;;20915304;28;20080;-65
2021/08/29 22:21:10;;;;;;;4.38;2.90;;;;;;;;;;20915527;28;20053;-69
2021/08/29 22:31:12;;;;;;;5.90;2.80;;;;;;;;;;20912909;28;20089;-67
2021/08/29 22:41:15;;;;;;;7.10;4.22;;;;;;;;;;20913200;28;20049;-67
2021/08/29 22:51:17;;;;;;;5.32;3.28;;;;;;;;;;20913084;28;20053;-69
2021/08/29 23:01:19;;;;;;;6.63;3.50;;;;;;;;;;20910821;28;20053;-68
2021/08/29 23:11:21;;;;;;;13.85;10.88;;;;;;;;;;20909022;28;20367;-63
2021/08/29 23:21:23;;;;;;;7.88;3.85;;;;;;;;;;20915031;28;20493;-64
2021/08/29 23:31:25;;;;;;;9.98;6.45;;;;;;;;;;20909051;28;20056;-64
2021/08/29 23:41:27;;;;;;;6.07;4.13;;;;;;;;;;20908558;28;20060;-64
2021/08/29 23:51:29;;;;;;;6.07;3.80;;;;;;;;;;20910289;28;20067;-64
